Airfield :
LOGIN :

Register | Disclaimer

   EN    FR    IT 

 










Legend :    VFR   Marginal VFR   IFR   Intensive IFR   Very Intensive IFR
Visi :
Ceiling :
>= 8 km
>= 3000ft
5 to 8 km
1000 to 3000 ft
1500m to 5 km
500 to 1000 ft
800 to 1500m
200 to 500 ft
< 800m
< 200 ft
Symbols :   Thunderstorms  Fog  Heavy snow  Heavy precipitations  Wind > 20 kt
SIGMETs :     Misc.  Thunderstorms  Icing  Turbulence  Mountain Waves  Volcanic Ashes






- Airport Elevation : 96 ft
- IATA code : REG


LICR - Reggio Calabria

CURRENT METAR :
  • 171850Z AUTO 01011KT 9999 NCD 23/11 Q1014

EXPIRED METARs :
  • 171820Z AUTO 01012KT 9999 NCD 24/11 Q1013
  • 171750Z AUTO 01014KT 9999 NCD 24/11 Q1013
  • 171720Z AUTO 36009KT 340V040 9999 NCD 25/12 Q1013
  • 171650Z AUTO 01011KT 340V050 9999 NCD 25/11 Q1013
  • 171620Z AUTO 03010KT 330V110 9999 NCD 26/11 Q1013
  • 171550Z AUTO 01013KT 330V060 9999 NCD 27/12 Q1013

TAF TAF LICR
Valid from the 17 at 18:00 until the 18 at 18:00 UTC


171700Z 1718/1818 36012KT CAVOK
TEMPO 1806/1816 35015G25KT



MET'MAP, your aeronautical weather chart ! - Copyright ORBIFLY December 2007 - Disclaimer

ORBIFLY MET'MAP TEAM :

Programming & Development : Alexandra Zaïnal
Concept & original design : Baudouin d'Aumeries
Assistance for programming : Marc-Olivier Méhu
Technical & hardware support : Manuel Goepfert

Contact : metmap@orbifly.com




SOURCES & CREDITS :

   NOAA